Time;durP1;ratioP1;P1;durP2;ratioP2;P2;SDS_P1;SDS_P2;PMS_P1;PMS_P2;Temp;Humidity;BMP_temperature;BMP_pressure;BME280_temperature;BME280_humidity;BME280_pressure;Samples;Min_cycle;Max_cycle;Signal;HPM_P1;HPM_P2
2023/11/04 00:00:05;;;;;;;10.02;4.90;;;8.40;99.90;;;;;;4992655;28;20196;-75
2023/11/04 00:02:34;;;;;;;12.00;5.22;;;8.40;99.90;;;;;;4992086;28;20520;-74
2023/11/04 00:05:06;;;;;;;16.42;8.57;;;8.40;99.90;;;;;;4988044;28;20045;-74
2023/11/04 00:07:35;;;;;;;12.85;7.65;;;8.40;99.90;;;;;;5016361;28;20054;-74
2023/11/04 00:10:03;;;;;;;17.52;9.13;;;8.40;99.90;;;;;;5006315;28;20456;-74
2023/11/04 00:12:32;;;;;;;21.48;9.50;;;8.40;99.90;;;;;;4992493;28;20700;-74
2023/11/04 00:15:01;;;;;;;20.20;8.65;;;8.40;99.90;;;;;;4990352;28;20052;-74
2023/11/04 00:17:30;;;;;;;15.05;7.10;;;8.50;99.90;;;;;;4992700;28;20736;-74
2023/11/04 00:19:58;;;;;;;18.10;7.40;;;8.50;99.90;;;;;;4992587;28;20095;-75
2023/11/04 00:22:29;;;;;;;13.18;7.05;;;8.50;99.90;;;;;;4982100;28;20069;-74
2023/11/04 00:24:58;;;;;;;13.88;6.93;;;8.40;99.90;;;;;;5009118;28;21823;-73
2023/11/04 00:27:26;;;;;;;14.45;6.95;;;8.50;99.90;;;;;;5017652;28;20040;-74
2023/11/04 00:29:55;;;;;;;12.68;6.72;;;8.50;99.90;;;;;;5031705;28;20060;-74
2023/11/04 00:32:24;;;;;;;12.02;6.45;;;8.50;99.90;;;;;;4988247;28;20098;-75
2023/11/04 00:34:53;;;;;;;13.48;6.20;;;8.40;99.90;;;;;;5001601;28;20131;-74
2023/11/04 00:37:21;;;;;;;13.73;7.35;;;8.40;99.90;;;;;;5007907;28;20179;-74
2023/11/04 00:39:51;;;;;;;23.70;9.80;;;8.30;99.90;;;;;;4990385;28;20084;-74
2023/11/04 00:42:20;;;;;;;17.23;8.70;;;8.30;99.90;;;;;;5024077;28;20179;-74
2023/11/04 00:44:48;;;;;;;14.65;6.72;;;8.10;99.90;;;;;;4988997;28;20416;-74
2023/11/04 00:47:17;;;;;;;10.57;5.93;;;8.00;99.90;;;;;;5006639;28;20164;-74
2023/11/04 00:49:45;;;;;;;11.63;5.88;;;7.90;99.90;;;;;;5009190;28;20041;-74
2023/11/04 00:52:14;;;;;;;10.75;5.63;;;8.10;99.90;;;;;;4997712;28;20057;-75
2023/11/04 00:54:42;;;;;;;12.55;5.70;;;8.10;99.90;;;;;;5008460;28;20064;-74
2023/11/04 00:57:12;;;;;;;12.90;6.18;;;8.10;99.90;;;;;;4982613;28;20052;-74
2023/11/04 00:59:41;;;;;;;9.30;5.57;;;8.20;99.90;;;;;;4998349;28;20053;-74
2023/11/04 01:02:10;;;;;;;9.40;5.75;;;8.00;99.90;;;;;;4997103;28;20048;-74
2023/11/04 01:04:38;;;;;;;9.32;5.38;;;8.10;99.90;;;;;;4992890;28;20060;-74
2023/11/04 01:07:07;;;;;;;11.48;5.13;;;8.20;99.90;;;;;;5020145;28;20398;-74
2023/11/04 01:09:35;;;;;;;8.38;4.85;;;8.20;99.90;;;;;;4988762;28;20147;-75
2023/11/04 01:12:07;;;;;;;10.02;5.00;;;8.20;99.90;;;;;;5008942;28;22658;-74
2023/11/04 01:14:39;;;;;;;9.45;4.82;;;8.30;99.90;;;;;;4993189;28;20055;-73
2023/11/04 01:17:08;;;;;;;9.65;4.85;;;8.30;99.90;;;;;;4992715;28;20056;-74
2023/11/04 01:19:36;;;;;;;11.20;5.05;;;8.30;99.90;;;;;;5005646;28;20557;-74
2023/11/04 01:22:05;;;;;;;25.88;5.72;;;8.30;99.90;;;;;;4990376;28;22543;-74
2023/11/04 01:24:34;;;;;;;9.38;4.75;;;8.20;99.90;;;;;;5006006;28;20061;-74
2023/11/04 01:27:02;;;;;;;11.63;5.50;;;8.20;99.90;;;;;;4988390;28;20060;-74
2023/11/04 01:29:31;;;;;;;11.27;5.10;;;8.20;99.90;;;;;;4985484;28;20115;-75
2023/11/04 01:32:00;;;;;;;8.98;4.63;;;8.20;99.90;;;;;;4994555;28;20050;-74
2023/11/04 01:34:29;;;;;;;8.38;4.18;;;8.10;99.90;;;;;;4989766;28;20050;-73
2023/11/04 01:36:58;;;;;;;7.38;3.67;;;8.10;99.90;;;;;;4990118;28;20060;-74
2023/11/04 01:39:26;;;;;;;8.05;4.20;;;8.10;99.90;;;;;;4989822;28;20110;-74
2023/11/04 01:41:55;;;;;;;8.80;4.07;;;8.10;99.90;;;;;;5022506;28;20050;-74
2023/11/04 01:44:24;;;;;;;6.78;3.63;;;8.10;99.90;;;;;;4988990;28;20061;-74
2023/11/04 01:46:52;;;;;;;7.75;3.67;;;8.10;99.90;;;;;;4988498;28;20057;-74
2023/11/04 01:49:22;;;;;;;8.27;4.15;;;8.20;99.90;;;;;;5007653;28;20050;-74
2023/11/04 01:51:52;;;;;;;10.75;4.45;;;8.20;99.90;;;;;;4991251;28;20392;-74
2023/11/04 01:54:22;;;;;;;7.47;3.75;;;8.20;99.90;;;;;;4991463;28;20506;-74
2023/11/04 01:56:52;;;;;;;10.52;4.53;;;8.10;99.90;;;;;;4989128;28;20050;-74
2023/11/04 01:59:21;;;;;;;9.57;5.00;;;8.20;99.90;;;;;;4991486;28;20590;-74
2023/11/04 02:01:49;;;;;;;8.45;4.38;;;8.20;99.90;;;;;;5019863;28;20041;-74
2023/11/04 02:04:18;;;;;;;7.22;4.25;;;8.20;99.90;;;;;;5007070;28;20531;-74
2023/11/04 02:06:48;;;;;;;9.40;4.45;;;8.20;99.90;;;;;;5011557;28;20038;-75
2023/11/04 02:09:16;;;;;;;8.43;4.43;;;8.20;99.90;;;;;;5003477;28;20064;-74
2023/11/04 02:11:45;;;;;;;10.25;5.57;;;8.20;99.90;;;;;;4989356;28;20283;-75
2023/11/04 02:14:13;;;;;;;7.03;3.75;;;8.20;99.90;;;;;;4994137;28;20124;-74
2023/11/04 02:16:42;;;;;;;8.05;4.30;;;8.20;99.90;;;;;;4990577;28;20050;-75
2023/11/04 02:19:10;;;;;;;7.53;4.10;;;8.20;99.90;;;;;;4990482;28;20050;-74
2023/11/04 02:21:40;;;;;;;8.82;3.95;;;8.20;99.90;;;;;;5006597;28;20041;-74
2023/11/04 02:24:09;;;;;;;5.63;3.08;;;8.20;99.90;;;;;;4990293;28;20559;-75
2023/11/04 02:26:38;;;;;;;8.18;3.42;;;8.10;99.90;;;;;;5009596;28;20057;-74
2023/11/04 02:29:07;;;;;;;6.50;3.40;;;8.00;99.90;;;;;;4990434;28;22588;-74
2023/11/04 02:31:34;;;;;;;6.72;3.70;;;7.90;99.90;;;;;;4990551;28;20053;-74
2023/11/04 02:34:02;;;;;;;6.65;3.15;;;8.00;99.90;;;;;;5001040;28;20053;-74
2023/11/04 02:36:35;;;;;;;6.18;3.15;;;8.00;99.90;;;;;;4995308;28;20093;-74
2023/11/04 02:39:06;;;;;;;5.97;2.90;;;8.00;99.90;;;;;;5023079;28;20061;-74
2023/11/04 02:41:35;;;;;;;5.55;2.25;;;8.00;99.90;;;;;;4988216;28;20054;-74
2023/11/04 02:44:04;;;;;;;4.18;1.90;;;8.10;99.90;;;;;;4990855;28;20060;-74
2023/11/04 02:46:34;;;;;;;4.45;2.00;;;8.00;99.90;;;;;;5005152;28;20103;-74
2023/11/04 02:49:02;;;;;;;3.83;1.30;;;8.00;99.90;;;;;;5009595;28;20456;-75
2023/11/04 02:51:32;;;;;;;2.10;1.00;;;8.10;99.90;;;;;;4991377;28;20045;-74
2023/11/04 02:54:01;;;;;;;3.17;1.38;;;8.10;99.90;;;;;;5001804;28;20056;-74
2023/11/04 02:56:31;;;;;;;4.47;1.42;;;8.10;99.90;;;;;;5002445;28;20045;-74
2023/11/04 02:58:59;;;;;;;3.55;1.40;;;8.10;99.90;;;;;;4991628;28;20068;-74
2023/11/04 03:01:28;;;;;;;2.50;1.20;;;8.00;99.90;;;;;;5005612;28;20416;-75
2023/11/04 03:03:58;;;;;;;1.92;1.08;;;7.90;99.90;;;;;;4997370;28;20061;-74
2023/11/04 03:06:26;;;;;;;2.40;1.08;;;7.90;99.90;;;;;;4996453;28;20053;-74
2023/11/04 03:08:55;;;;;;;2.30;1.02;;;7.90;99.90;;;;;;4991045;28;20053;-74
2023/11/04 03:11:24;;;;;;;2.60;1.02;;;8.00;99.90;;;;;;4991921;28;20084;-74
2023/11/04 03:13:54;;;;;;;3.15;1.35;;;8.10;99.90;;;;;;4989618;28;22456;-74
2023/11/04 03:16:23;;;;;;;3.15;1.40;;;8.20;99.90;;;;;;5004847;28;20231;-74
2023/11/04 03:18:52;;;;;;;3.10;1.08;;;8.20;99.90;;;;;;4980016;28;20064;-74
2023/11/04 03:21:21;;;;;;;3.25;1.65;;;8.30;99.90;;;;;;5022425;28;20049;-74
2023/11/04 03:23:49;;;;;;;2.33;1.45;;;8.20;99.90;;;;;;5003894;28;20500;-74
2023/11/04 03:26:18;;;;;;;2.42;1.00;;;8.30;99.90;;;;;;5010933;28;20057;-74
2023/11/04 03:28:47;;;;;;;5.05;1.40;;;8.30;99.90;;;;;;5008492;28;20045;-74
2023/11/04 03:31:17;;;;;;;2.67;1.42;;;8.30;99.90;;;;;;4986011;28;20061;-74
2023/11/04 03:33:45;;;;;;;3.35;1.50;;;8.30;99.90;;;;;;5004899;28;21089;-74
2023/11/04 03:36:14;;;;;;;2.88;1.42;;;8.30;99.90;;;;;;4992292;28;20054;-74
2023/11/04 03:38:42;;;;;;;2.70;1.30;;;8.40;99.90;;;;;;5009936;28;20144;-74
2023/11/04 03:41:11;;;;;;;2.47;1.30;;;8.30;99.90;;;;;;5006150;28;20099;-74
2023/11/04 03:43:39;;;;;;;2.40;1.08;;;8.30;99.90;;;;;;4997137;28;20069;-75
2023/11/04 03:46:08;;;;;;;2.78;1.45;;;8.30;99.90;;;;;;4993491;28;20918;-74
2023/11/04 03:48:38;;;;;;;3.53;1.00;;;8.40;99.90;;;;;;4989888;28;20154;-74
2023/11/04 03:51:08;;;;;;;3.80;1.48;;;8.40;99.90;;;;;;4988878;28;21044;-74
2023/11/04 03:53:36;;;;;;;2.45;1.30;;;8.40;99.90;;;;;;5002995;28;20052;-74
2023/11/04 03:56:05;;;;;;;3.92;1.23;;;8.40;99.90;;;;;;4990308;28;20050;-74
2023/11/04 03:58:34;;;;;;;4.72;1.67;;;8.40;99.90;;;;;;5018023;28;20049;-74
2023/11/04 04:01:03;;;;;;;2.85;1.55;;;8.30;99.90;;;;;;4995131;28;20404;-74
2023/11/04 04:03:31;;;;;;;5.28;2.45;;;8.30;99.90;;;;;;5020475;28;20073;-75
2023/11/04 04:06:01;;;;;;;3.58;2.00;;;8.40;99.90;;;;;;5007275;28;21131;-74
2023/11/04 04:08:29;;;;;;;4.25;2.03;;;8.40;99.90;;;;;;4989640;28;20079;-75
2023/11/04 04:10:59;;;;;;;3.20;2.38;;;8.30;99.90;;;;;;5011697;28;22487;-74
2023/11/04 04:13:27;;;;;;;4.28;2.28;;;8.40;99.90;;;;;;5008948;28;22623;-76
2023/11/04 04:15:56;;;;;;;4.32;2.17;;;8.40;99.90;;;;;;4989941;28;20041;-75
2023/11/04 04:18:24;;;;;;;4.70;2.30;;;8.30;99.90;;;;;;5005575;28;20045;-77
2023/11/04 04:20:53;;;;;;;5.80;2.80;;;8.40;99.90;;;;;;5010418;28;20053;-76
2023/11/04 04:23:23;;;;;;;5.15;2.05;;;8.40;99.90;;;;;;5040675;28;20742;-77
2023/11/04 04:25:51;;;;;;;4.72;2.40;;;8.40;99.90;;;;;;4989151;28;20087;-77
2023/11/04 04:28:19;;;;;;;4.82;2.58;;;8.40;99.90;;;;;;5010127;28;20046;-77
2023/11/04 04:30:48;;;;;;;7.60;2.92;;;8.30;99.90;;;;;;5024389;28;22372;-76
2023/11/04 04:33:17;;;;;;;5.18;2.63;;;8.30;99.90;;;;;;5005021;28;20124;-76
2023/11/04 04:35:46;;;;;;;12.60;6.40;;;8.00;99.90;;;;;;5002431;28;20061;-76
2023/11/04 04:38:14;;;;;;;8.93;4.88;;;7.90;99.90;;;;;;5035745;28;20055;-76
2023/11/04 04:40:44;;;;;;;7.88;3.65;;;7.90;99.90;;;;;;4994935;28;20053;-76
2023/11/04 04:43:12;;;;;;;5.53;3.40;;;8.00;99.90;;;;;;5008017;28;20141;-76
2023/11/04 04:45:41;;;;;;;7.07;4.13;;;8.10;99.90;;;;;;4993545;28;20069;-77
2023/11/04 04:48:10;;;;;;;8.10;4.15;;;8.00;99.90;;;;;;4994184;28;20061;-77
2023/11/04 04:50:39;;;;;;;8.30;3.45;;;7.90;99.90;;;;;;4995091;28;20303;-77
2023/11/04 04:53:07;;;;;;;5.07;3.15;;;7.90;99.90;;;;;;5011041;28;20049;-77
2023/11/04 04:55:36;;;;;;;5.95;2.92;;;7.80;99.90;;;;;;5001107;28;20221;-77
2023/11/04 04:58:06;;;;;;;5.57;2.80;;;7.90;99.90;;;;;;4996051;28;20127;-77
2023/11/04 05:00:34;;;;;;;6.18;2.95;;;7.80;99.90;;;;;;5018527;28;20050;-77
2023/11/04 05:03:05;;;;;;;5.78;2.95;;;7.90;99.90;;;;;;5036862;28;20175;-77
2023/11/04 05:05:34;;;;;;;5.80;2.63;;;7.90;99.90;;;;;;4993465;28;20134;-76
2023/11/04 05:08:02;;;;;;;5.05;2.67;;;7.80;99.90;;;;;;5009304;28;20866;-76
2023/11/04 05:10:31;;;;;;;5.00;2.38;;;7.80;99.90;;;;;;4990499;28;20081;-77
2023/11/04 05:12:59;;;;;;;6.68;2.78;;;7.80;99.90;;;;;;5008929;28;20041;-76
2023/11/04 05:15:29;;;;;;;4.05;1.55;;;7.90;99.90;;;;;;4996992;28;20071;-76
2023/11/04 05:17:58;;;;;;;4.80;1.90;;;7.90;99.90;;;;;;5023298;28;20054;-76
2023/11/04 05:20:26;;;;;;;4.28;2.25;;;7.90;99.90;;;;;;4991960;28;20183;-77
2023/11/04 05:22:54;;;;;;;2.83;1.48;;;7.90;99.90;;;;;;5012022;28;20049;-78
2023/11/04 05:25:23;;;;;;;4.70;2.55;;;8.00;99.90;;;;;;4992265;28;20180;-77
2023/11/04 05:27:52;;;;;;;4.93;2.25;;;7.90;99.90;;;;;;4996350;28;20128;-76
2023/11/04 05:30:21;;;;;;;5.40;2.38;;;7.90;99.90;;;;;;5005155;28;20119;-76
2023/11/04 05:32:51;;;;;;;5.20;2.30;;;7.90;99.90;;;;;;4999700;28;20061;-76
2023/11/04 05:35:20;;;;;;;5.30;2.50;;;7.80;99.90;;;;;;5010174;28;20049;-77
2023/11/04 05:37:48;;;;;;;7.10;3.28;;;7.80;99.90;;;;;;4994732;28;20041;-76
2023/11/04 05:40:17;;;;;;;10.55;4.82;;;7.80;99.90;;;;;;4995138;28;20184;-76
2023/11/04 05:42:46;;;;;;;7.68;4.22;;;7.90;99.90;;;;;;4992048;28;20493;-76
2023/11/04 05:45:15;;;;;;;6.22;3.20;;;7.90;99.90;;;;;;4992732;28;20065;-76
2023/11/04 05:47:46;;;;;;;3.55;2.13;;;7.80;99.90;;;;;;4995021;28;20166;-77
2023/11/04 05:50:16;;;;;;;2.47;1.20;;;7.80;99.90;;;;;;4992677;28;20072;-77
2023/11/04 05:52:45;;;;;;;2.88;1.08;;;7.90;99.90;;;;;;5006810;28;20119;-77
2023/11/04 05:55:13;;;;;;;3.50;1.23;;;7.90;99.90;;;;;;5022736;28;20064;-77
2023/11/04 05:57:42;;;;;;;2.33;1.20;;;7.80;99.90;;;;;;4990493;28;20051;-77
2023/11/04 06:00:12;;;;;;;2.72;1.30;;;7.80;99.90;;;;;;4989203;28;20076;-76
2023/11/04 06:02:41;;;;;;;3.70;1.15;;;7.90;99.90;;;;;;4988499;28;20513;-76
2023/11/04 06:05:12;;;;;;;3.95;1.20;;;7.90;99.90;;;;;;4988054;28;20038;-77
2023/11/04 06:07:42;;;;;;;5.22;1.52;;;8.00;99.90;;;;;;5005566;28;20528;-77
2023/11/04 06:10:12;;;;;;;3.78;2.00;;;7.90;99.90;;;;;;4995428;28;20192;-76
2023/11/04 06:12:41;;;;;;;3.20;1.42;;;8.10;99.90;;;;;;4998693;28;21283;-76
2023/11/04 06:15:10;;;;;;;3.47;1.67;;;8.20;99.90;;;;;;4996649;28;20484;-76
2023/11/04 06:17:39;;;;;;;3.03;1.30;;;8.20;99.90;;;;;;4996941;28;20041;-76
2023/11/04 06:20:09;;;;;;;2.63;1.02;;;8.30;99.90;;;;;;4998113;28;23017;-76
2023/11/04 06:22:38;;;;;;;2.53;1.15;;;8.30;99.90;;;;;;4982399;28;20678;-76
2023/11/04 06:25:08;;;;;;;2.85;1.27;;;8.40;99.90;;;;;;4979525;28;20558;-76
2023/11/04 06:27:37;;;;;;;4.28;1.60;;;8.40;99.90;;;;;;4980552;28;20084;-76
2023/11/04 06:30:06;;;;;;;5.25;2.13;;;8.40;99.90;;;;;;4980195;28;20045;-76
2023/11/04 06:32:35;;;;;;;3.50;1.77;;;8.40;99.90;;;;;;4985342;28;20521;-77
2023/11/04 06:35:05;;;;;;;4.38;1.83;;;8.40;99.90;;;;;;5025491;28;20049;-77
2023/11/04 06:37:34;;;;;;;12.65;6.25;;;8.40;99.90;;;;;;4997668;28;20064;-77
2023/11/04 06:40:04;;;;;;;9.95;4.40;;;8.30;99.90;;;;;;4994644;28;20054;-76
2023/11/04 06:42:34;;;;;;;5.90;2.95;;;8.40;99.90;;;;;;4990524;28;20065;-76
2023/11/04 06:45:03;;;;;;;4.82;2.50;;;8.50;99.90;;;;;;4993455;28;20068;-77
2023/11/04 06:47:31;;;;;;;5.88;2.45;;;8.50;99.90;;;;;;5011833;28;20105;-77
2023/11/04 06:50:00;;;;;;;15.50;7.07;;;8.50;99.90;;;;;;4995690;28;20155;-77
2023/11/04 06:52:30;;;;;;;22.98;9.77;;;8.50;99.90;;;;;;5013773;28;20061;-77
2023/11/04 06:54:59;;;;;;;19.45;10.20;;;8.50;99.90;;;;;;5021250;28;20071;-76
2023/11/04 06:57:27;;;;;;;12.95;6.57;;;8.50;99.90;;;;;;5004978;28;20057;-76
2023/11/04 06:59:57;;;;;;;10.05;4.80;;;8.50;99.90;;;;;;4995361;28;20532;-77
2023/11/04 07:02:26;;;;;;;5.93;3.10;;;8.50;99.90;;;;;;5003016;28;20056;-77
2023/11/04 07:04:58;;;;;;;5.85;2.35;;;8.50;99.90;;;;;;4999476;28;22288;-77
2023/11/04 07:07:28;;;;;;;;;;;8.50;99.90;;;;;;4996421;28;20056;-77
2023/11/04 07:09:57;;;;;;;4.57;1.40;;;8.50;99.90;;;;;;5011033;28;19929;-78
2023/11/04 07:12:26;;;;;;;13.50;5.20;;;8.50;99.90;;;;;;5020869;28;20496;-77
2023/11/04 07:14:54;;;;;;;12.10;4.95;;;8.50;99.90;;;;;;5025399;28;20037;-77
2023/11/04 07:17:24;;;;;;;4.50;2.50;;;8.50;99.90;;;;;;5012644;28;20068;-76
2023/11/04 07:19:55;;;;;;;5.57;2.88;;;8.50;99.90;;;;;;4996012;28;20058;-76
2023/11/04 07:22:24;;;;;;;3.70;2.03;;;8.50;99.90;;;;;;4985534;28;20064;-76
2023/11/04 07:24:52;;;;;;;3.75;1.50;;;8.50;99.90;;;;;;4995597;28;20179;-76
2023/11/04 07:27:21;;;;;;;3.58;1.38;;;8.60;99.90;;;;;;5010461;28;20049;-77
2023/11/04 07:29:49;;;;;;;16.48;7.05;;;8.60;99.90;;;;;;4996151;28;20050;-77
2023/11/04 07:32:18;;;;;;;27.90;12.88;;;8.60;99.90;;;;;;5013522;28;22233;-76
2023/11/04 07:34:48;;;;;;;11.75;5.60;;;8.60;99.90;;;;;;4995435;28;20168;-77
2023/11/04 07:37:17;;;;;;;10.35;4.30;;;8.60;99.90;;;;;;5031217;28;20057;-76
2023/11/04 07:39:45;;;;;;;7.22;2.65;;;8.60;99.90;;;;;;5010447;28;20056;-76
2023/11/04 07:42:14;;;;;;;6.30;3.40;;;8.50;99.90;;;;;;4994883;28;20067;-76
2023/11/04 07:44:43;;;;;;;7.53;3.33;;;8.50;99.90;;;;;;4998708;28;20077;-76
2023/11/04 07:47:11;;;;;;;12.95;4.13;;;8.60;99.90;;;;;;5005688;28;20053;-76
2023/11/04 07:49:40;;;;;;;11.15;5.15;;;8.60;99.90;;;;;;5006098;28;20053;-79
2023/11/04 07:52:10;;;;;;;11.68;4.75;;;8.60;99.90;;;;;;5000555;28;20057;-78
2023/11/04 07:54:38;;;;;;;6.35;3.35;;;8.70;99.90;;;;;;5027383;28;20187;-78
2023/11/04 07:57:07;;;;;;;8.43;4.07;;;8.60;99.90;;;;;;4997521;28;20058;-78
2023/11/04 07:59:36;;;;;;;6.80;3.45;;;8.70;99.90;;;;;;4998330;28;20049;-78
2023/11/04 08:02:05;;;;;;;8.20;3.90;;;8.70;99.90;;;;;;5030216;28;20065;-78
2023/11/04 08:04:34;;;;;;;8.45;4.78;;;8.80;99.90;;;;;;4988588;28;20152;-77
2023/11/04 08:07:03;;;;;;;9.18;4.38;;;8.80;99.90;;;;;;4991407;28;20622;-76
2023/11/04 08:09:33;;;;;;;9.88;4.13;;;8.80;99.90;;;;;;4993388;28;20049;-77
2023/11/04 08:12:02;;;;;;;7.35;3.80;;;8.80;99.90;;;;;;4978248;28;20069;-77
2023/11/04 08:14:30;;;;;;;7.75;4.05;;;8.80;99.90;;;;;;4993283;28;20238;-77
2023/11/04 08:16:59;;;;;;;7.57;4.20;;;8.80;99.90;;;;;;5003758;28;20108;-77
2023/11/04 08:19:27;;;;;;;10.38;4.60;;;8.90;99.90;;;;;;4974679;28;20941;-77
2023/11/04 08:21:56;;;;;;;11.88;6.25;;;9.00;99.90;;;;;;4978876;28;20045;-77
2023/11/04 08:24:25;;;;;;;13.10;5.40;;;9.00;99.90;;;;;;4977593;28;20068;-77
2023/11/04 08:26:55;;;;;;;8.25;4.45;;;8.90;99.90;;;;;;4996319;28;20053;-77
2023/11/04 08:29:23;;;;;;;7.75;3.95;;;9.00;99.90;;;;;;4995761;28;20052;-77
2023/11/04 08:31:51;;;;;;;8.15;5.45;;;9.00;99.90;;;;;;4979199;28;20052;-78
2023/11/04 08:34:20;;;;;;;5.35;3.03;;;9.00;99.90;;;;;;4995554;28;20057;-76
2023/11/04 08:36:48;;;;;;;6.75;3.42;;;9.20;99.90;;;;;;4974485;28;22237;-77
2023/11/04 08:39:17;;;;;;;5.93;3.05;;;9.50;99.90;;;;;;4994085;28;20041;-77
2023/11/04 08:41:46;;;;;;;8.43;3.30;;;9.70;99.90;;;;;;4991293;28;20064;-76
2023/11/04 08:44:16;;;;;;;6.45;3.28;;;9.60;99.90;;;;;;4974416;28;20183;-77
2023/11/04 08:46:44;;;;;;;5.65;2.55;;;9.70;99.90;;;;;;4975767;28;20135;-76
2023/11/04 08:49:12;;;;;;;3.88;1.83;;;9.50;99.90;;;;;;5008509;28;20050;-76
2023/11/04 08:51:41;;;;;;;4.80;2.05;;;9.40;99.90;;;;;;4976540;28;20064;-76
2023/11/04 08:54:09;;;;;;;4.03;1.50;;;9.40;99.90;;;;;;4976631;28;20841;-76
2023/11/04 08:56:38;;;;;;;3.42;1.10;;;9.40;99.90;;;;;;4974979;28;20045;-76
2023/11/04 08:59:06;;;;;;;2.63;0.85;;;9.60;99.90;;;;;;5009521;28;20053;-73
2023/11/04 09:01:36;;;;;;;3.63;1.13;;;9.60;99.90;;;;;;4993746;28;20073;-75
2023/11/04 09:04:05;;;;;;;2.92;1.10;;;9.60;99.90;;;;;;4995064;28;20087;-75
2023/11/04 09:06:41;;;;;;;3.20;1.40;;;9.70;99.90;;;;;;4986284;28;22557;-74
2023/11/04 09:09:09;;;;;;;4.38;1.50;;;9.90;99.90;;;;;;5027296;28;20062;-75
2023/11/04 09:11:39;;;;;;;2.55;1.20;;;10.00;99.90;;;;;;4992961;28;20100;-74
2023/11/04 09:14:07;;;;;;;5.10;1.13;;;10.00;99.90;;;;;;4991207;28;20053;-73
2023/11/04 09:16:37;;;;;;;5.22;1.30;;;10.00;99.90;;;;;;4990998;28;20046;-74
2023/11/04 09:19:05;;;;;;;3.38;0.93;;;10.00;99.90;;;;;;5024909;28;20169;-74
2023/11/04 09:21:35;;;;;;;1.38;0.70;;;9.90;99.90;;;;;;4993388;28;21379;-75
2023/11/04 09:24:04;;;;;;;2.22;1.10;;;9.70;99.90;;;;;;5011289;28;20107;-75
2023/11/04 09:26:32;;;;;;;3.25;1.08;;;9.70;99.90;;;;;;4997950;28;20184;-74
2023/11/04 09:29:01;;;;;;;6.55;1.00;;;9.80;99.90;;;;;;4994858;28;20053;-76
2023/11/04 09:31:30;;;;;;;2.17;0.50;;;10.00;99.90;;;;;;4996282;28;20698;-75
2023/11/04 09:34:00;;;;;;;1.10;0.40;;;10.20;99.90;;;;;;5015198;28;20061;-75
2023/11/04 09:36:29;;;;;;;1.17;0.40;;;10.20;99.90;;;;;;5003606;28;20088;-74
2023/11/04 09:38:58;;;;;;;1.63;0.40;;;10.20;99.90;;;;;;5011832;28;20136;-74
2023/11/04 09:41:26;;;;;;;3.13;0.47;;;10.20;99.90;;;;;;4995470;28;21054;-74
2023/11/04 09:43:55;;;;;;;1.08;0.30;;;10.30;99.90;;;;;;4991810;28;20068;-75
2023/11/04 09:46:23;;;;;;;1.58;0.38;;;10.40;99.90;;;;;;4995067;28;20045;-75
2023/11/04 09:48:52;;;;;;;6.28;1.50;;;10.50;99.90;;;;;;4987468;28;20161;-75
2023/11/04 09:51:23;;;;;;;4.28;0.63;;;10.50;99.90;;;;;;4998567;28;20057;-75
2023/11/04 09:53:54;;;;;;;0.95;0.30;;;10.50;99.90;;;;;;4996450;28;20045;-75
2023/11/04 09:56:23;;;;;;;2.25;0.55;;;10.50;99.90;;;;;;5013328;28;20184;-75
2023/11/04 09:58:52;;;;;;;2.33;0.77;;;10.60;99.90;;;;;;4994502;28;20096;-75
2023/11/04 10:01:20;;;;;;;1.15;0.50;;;10.60;99.90;;;;;;5004969;28;20045;-75
2023/11/04 10:03:49;;;;;;;1.48;0.47;;;10.60;99.90;;;;;;5027069;28;20054;-75
2023/11/04 10:06:18;;;;;;;1.27;0.40;;;10.60;99.90;;;;;;4993120;28;20119;-75
2023/11/04 10:08:48;;;;;;;1.98;0.50;;;10.60;99.90;;;;;;5000734;28;20053;-76
2023/11/04 10:11:16;;;;;;;2.60;0.70;;;10.80;99.90;;;;;;5011405;28;20769;-76
2023/11/04 10:13:45;;;;;;;1.55;0.60;;;11.00;99.90;;;;;;4990273;28;20231;-76
2023/11/04 10:16:14;;;;;;;1.13;0.40;;;10.90;99.90;;;;;;4993783;28;20542;-78
2023/11/04 10:18:43;;;;;;;1.10;0.40;;;11.00;99.90;;;;;;5007052;28;20737;-76
2023/11/04 10:21:11;;;;;;;1.27;0.38;;;11.00;99.90;;;;;;5011864;28;20050;-76
2023/11/04 10:23:40;;;;;;;3.60;0.63;;;11.10;99.90;;;;;;4992663;28;20045;-76
2023/11/04 10:26:10;;;;;;;1.15;0.40;;;11.20;99.90;;;;;;5004987;28;20091;-76
2023/11/04 10:28:39;;;;;;;2.53;0.80;;;11.20;99.90;;;;;;4994732;28;20942;-76
2023/11/04 10:31:08;;;;;;;1.58;0.60;;;11.20;99.90;;;;;;5007607;28;20524;-76
2023/11/04 10:33:38;;;;;;;1.83;0.70;;;11.20;99.90;;;;;;5005892;28;20085;-76
2023/11/04 10:36:08;;;;;;;5.15;1.40;;;11.20;99.90;;;;;;4988723;28;20111;-75
2023/11/04 10:38:37;;;;;;;2.88;0.75;;;11.20;99.90;;;;;;4988080;28;20050;-76
2023/11/04 10:41:07;;;;;;;1.48;0.50;;;11.40;99.90;;;;;;4991257;28;20053;-75
2023/11/04 10:43:51;;;;;;;2.72;0.52;;;11.30;99.90;;;;;;4986859;28;20548;-75
2023/11/04 10:46:28;;;;;;;4.72;0.68;;;11.40;99.90;;;;;;4991090;28;20056;-76
2023/11/04 10:49:05;;;;;;;1.00;0.35;;;11.40;99.90;;;;;;4997052;28;20054;-75
2023/11/04 10:51:40;;;;;;;1.13;0.47;;;11.60;99.90;;;;;;5008812;28;20049;-76
2023/11/04 10:54:17;;;;;;;1.33;0.47;;;11.50;99.90;;;;;;4995372;28;20041;-76
2023/11/04 10:56:49;;;;;;;1.25;0.50;;;11.60;99.90;;;;;;4997133;28;20104;-76
2023/11/04 10:59:27;;;;;;;2.92;0.50;;;11.60;99.90;;;;;;4989773;28;20058;-75
2023/11/04 11:01:57;;;;;;;1.33;0.47;;;11.50;99.90;;;;;;4986897;28;20045;-75
2023/11/04 11:04:26;;;;;;;2.65;0.50;;;11.60;99.90;;;;;;4989333;28;20121;-76
2023/11/04 11:06:55;;;;;;;1.02;0.30;;;11.60;99.90;;;;;;4988848;28;20081;-76
2023/11/04 11:09:24;;;;;;;2.10;0.30;;;11.60;99.90;;;;;;4988593;28;20053;-76
2023/11/04 11:12:01;;;;;;;1.60;0.20;;;11.60;99.90;;;;;;5008881;28;21844;-75
2023/11/04 11:14:31;;;;;;;0.70;0.30;;;11.60;99.90;;;;;;4992522;28;20094;-76
2023/11/04 11:17:00;;;;;;;2.15;0.30;;;11.60;99.90;;;;;;4995166;28;20050;-75
2023/11/04 11:19:29;;;;;;;1.50;0.20;;;11.70;99.90;;;;;;5002965;28;20048;-76
2023/11/04 11:21:58;;;;;;;1.80;0.63;;;11.80;99.90;;;;;;4988549;28;20131;-76
2023/11/04 11:24:26;;;;;;;3.03;0.80;;;11.70;99.90;;;;;;5006184;28;22653;-76
2023/11/04 11:27:00;;;;;;;1.50;0.30;;;11.70;99.90;;;;;;4998030;28;20411;-76
2023/11/04 11:29:32;;;;;;;1.85;0.30;;;11.70;99.90;;;;;;4990010;28;22536;-76
2023/11/04 11:32:06;;;;;;;2.60;0.50;;;11.80;99.90;;;;;;5019220;28;22632;-76
2023/11/04 11:34:34;;;;;;;1.67;0.77;;;11.90;99.90;;;;;;5007724;28;20531;-76
2023/11/04 11:37:05;;;;;;;1.98;0.63;;;12.00;99.90;;;;;;4992605;28;20042;-77
2023/11/04 11:39:35;;;;;;;1.00;0.35;;;12.10;99.90;;;;;;5015719;28;20049;-77
2023/11/04 11:42:04;;;;;;;3.38;0.50;;;12.10;99.90;;;;;;4993694;28;20045;-77
2023/11/04 11:44:34;;;;;;;1.45;0.50;;;11.90;99.90;;;;;;4994140;28;20065;-76
2023/11/04 11:47:04;;;;;;;1.33;0.40;;;11.90;99.90;;;;;;4993272;28;22479;-76
2023/11/04 11:49:32;;;;;;;4.47;1.58;;;11.90;99.90;;;;;;5002292;28;20052;-77
2023/11/04 11:52:01;;;;;;;3.63;1.20;;;12.00;99.90;;;;;;5010460;28;20061;-76
2023/11/04 11:54:31;;;;;;;1.85;0.50;;;12.00;99.90;;;;;;5004803;28;20155;-77
2023/11/04 11:56:59;;;;;;;3.47;0.38;;;12.00;99.90;;;;;;4991344;28;20048;-76
2023/11/04 11:59:28;;;;;;;1.10;0.30;;;12.10;99.90;;;;;;4999380;28;20053;-77
2023/11/04 12:01:58;;;;;;;2.60;0.35;;;12.10;99.90;;;;;;5003001;28;20064;-76
2023/11/04 12:04:29;;;;;;;2.58;0.45;;;12.00;99.90;;;;;;4997963;28;20432;-76
2023/11/04 12:07:00;;;;;;;2.03;0.35;;;12.00;99.90;;;;;;4991952;28;20100;-77
2023/11/04 12:09:29;;;;;;;0.73;0.38;;;11.90;99.90;;;;;;4981535;28;20190;-76
2023/11/04 12:11:58;;;;;;;1.85;0.60;;;11.90;99.90;;;;;;4991733;28;21037;-77
2023/11/04 12:14:26;;;;;;;2.53;0.68;;;12.00;99.90;;;;;;4993223;28;20854;-77
2023/11/04 12:16:55;;;;;;;3.72;0.80;;;12.10;99.90;;;;;;5008590;28;20077;-77
2023/11/04 12:19:25;;;;;;;1.63;0.68;;;12.10;99.90;;;;;;4991543;28;20130;-77
2023/11/04 12:21:53;;;;;;;1.85;0.80;;;12.00;99.90;;;;;;5034077;28;20053;-77
2023/11/04 12:24:22;;;;;;;2.00;0.73;;;12.00;99.50;;;;;;5009806;28;20049;-77
2023/11/04 12:26:53;;;;;;;2.55;0.60;;;12.00;99.20;;;;;;4987047;28;20666;-77
2023/11/04 12:29:21;;;;;;;1.75;0.60;;;11.90;99.10;;;;;;4992037;28;20053;-77
2023/11/04 12:31:50;;;;;;;85.07;40.13;;;12.00;99.90;;;;;;5000277;28;20049;-78
2023/11/04 12:34:25;;;;;;;7.75;4.15;;;11.90;98.80;;;;;;4996856;28;20057;-77
2023/11/04 12:36:54;;;;;;;5.60;2.30;;;11.90;99.50;;;;;;5013578;28;20049;-79
2023/11/04 12:39:23;;;;;;;2.72;0.60;;;11.90;99.90;;;;;;5007330;28;20577;-76
2023/11/04 12:41:52;;;;;;;3.53;1.23;;;12.00;99.90;;;;;;5003888;28;20136;-76
2023/11/04 12:44:24;;;;;;;2.92;0.60;;;12.00;99.90;;;;;;5008374;28;20111;-78
2023/11/04 12:46:59;;;;;;;3.13;0.80;;;12.10;99.90;;;;;;5000088;28;20061;-78
2023/11/04 12:49:29;;;;;;;2.10;0.82;;;12.10;99.90;;;;;;5010244;28;20144;-78
2023/11/04 12:51:57;;;;;;;2.20;0.85;;;12.00;99.90;;;;;;5024202;28;20069;-78
2023/11/04 12:54:26;;;;;;;3.33;1.15;;;12.00;99.90;;;;;;4991755;28;20060;-78
2023/11/04 12:56:54;;;;;;;2.17;0.90;;;11.90;99.90;;;;;;4991383;28;20516;-76
2023/11/04 12:59:23;;;;;;;2.58;1.38;;;11.90;99.90;;;;;;4995342;28;20058;-79
2023/11/04 13:01:51;;;;;;;3.50;1.30;;;11.90;99.90;;;;;;4998712;28;20049;-76